createdAt,value
2022-09-13T00:00:10.695Z,88.36
2022-09-13T00:02:39.999Z,87.65
2022-09-13T00:05:09.725Z,87.75
2022-09-13T00:07:39.061Z,89.80
2022-09-13T00:10:09.124Z,90.40
2022-09-13T00:12:38.564Z,91.18
2022-09-13T00:15:08.880Z,90.79
2022-09-13T00:17:38.115Z,90.84
2022-09-13T00:20:10.868Z,90.66
2022-09-13T00:22:40.154Z,91.16
2022-09-13T00:25:09.985Z,90.92
2022-09-13T00:27:39.365Z,90.82
2022-09-13T00:30:09.666Z,91.33
2022-09-13T00:32:39.428Z,92.17
2022-09-13T00:35:09.549Z,91.38
2022-09-13T00:37:39.358Z,91.00
2022-09-13T00:40:11.458Z,90.99
2022-09-13T00:42:42.482Z,90.99
2022-09-13T00:45:15.083Z,91.48
2022-09-13T00:47:59.665Z,90.83
2022-09-13T00:50:44.109Z,91.59
2022-09-13T00:53:24.739Z,92.42
2022-09-13T00:56:02.624Z,91.17
2022-09-13T00:58:44.085Z,90.23
2022-09-13T01:01:16.346Z,90.10
2022-09-13T01:03:47.114Z,86.94
2022-09-13T01:06:22.009Z,85.13
2022-09-13T01:08:54.957Z,83.96
2022-09-13T01:11:33.247Z,83.34
2022-09-13T01:14:02.726Z,83.17
2022-09-13T01:16:32.154Z,82.61
2022-09-13T01:19:01.613Z,82.14
2022-09-13T01:21:53.420Z,82.00
2022-09-13T01:24:48.210Z,82.34
2022-09-13T01:27:26.453Z,82.23
2022-09-13T01:30:18.471Z,82.29
2022-09-13T01:32:57.299Z,82.38
2022-09-13T01:35:41.765Z,82.42
2022-09-13T01:38:35.155Z,82.22
2022-09-13T01:41:13.680Z,82.42
2022-09-13T01:44:01.173Z,82.45
2022-09-13T01:46:33.620Z,82.31
2022-09-13T01:49:12.433Z,84.07
2022-09-13T01:51:48.481Z,86.89
2022-09-13T01:54:35.717Z,87.07
2022-09-13T01:57:23.164Z,87.69
2022-09-13T01:59:55.669Z,87.58
2022-09-13T02:02:26.010Z,87.69
2022-09-13T02:04:57.778Z,88.36
2022-09-13T02:07:33.606Z,89.78
2022-09-13T02:10:06.125Z,89.40
2022-09-13T02:12:37.104Z,89.94
2022-09-13T02:15:15.305Z,89.62
2022-09-13T02:17:47.949Z,90.15
2022-09-13T02:20:37.958Z,90.70
2022-09-13T02:23:10.605Z,90.80
2022-09-13T02:25:41.481Z,91.08
2022-09-13T02:28:16.339Z,90.41
2022-09-13T02:30:47.927Z,90.41
2022-09-13T02:33:20.081Z,89.32
2022-09-13T02:35:58.673Z,89.67
2022-09-13T02:38:31.153Z,89.39
2022-09-13T02:41:03.216Z,89.94
2022-09-13T02:43:38.640Z,90.08
2022-09-13T02:46:29.183Z,90.17
2022-09-13T02:49:01.773Z,90.00
2022-09-13T02:51:31.768Z,90.98
2022-09-13T02:54:15.677Z,89.08
2022-09-13T02:56:51.707Z,89.71
2022-09-13T02:59:25.078Z,90.40
2022-09-13T03:02:06.300Z,90.09
2022-09-13T03:04:35.977Z,89.28
2022-09-13T03:07:07.697Z,90.04
2022-09-13T03:09:37.064Z,91.03
2022-09-13T03:12:12.082Z,91.44
2022-09-13T03:14:59.532Z,90.99
2022-09-13T03:17:51.660Z,91.01
2022-09-13T03:20:48.340Z,91.97
2022-09-13T03:23:23.977Z,94.36
2022-09-13T03:26:05.072Z,93.54
2022-09-13T03:28:46.756Z,93.50
2022-09-13T03:31:24.835Z,94.18
2022-09-13T03:34:03.333Z,94.53
2022-09-13T03:36:35.063Z,93.98
2022-09-13T03:39:19.603Z,94.20
2022-09-13T03:41:51.249Z,93.46
2022-09-13T03:44:22.576Z,93.36
2022-09-13T03:46:54.493Z,92.76
2022-09-13T03:49:25.243Z,91.36
2022-09-13T03:51:55.197Z,90.69
2022-09-13T03:54:32.459Z,90.58
2022-09-13T03:57:17.494Z,91.55
2022-09-13T03:59:51.733Z,92.84
2022-09-13T04:02:23.513Z,93.98
2022-09-13T04:04:52.833Z,94.31
2022-09-13T04:07:24.101Z,95.25
2022-09-13T04:09:53.375Z,95.29
2022-09-13T04:12:23.113Z,96.77
2022-09-13T04:14:52.605Z,96.54
2022-09-13T04:17:21.822Z,96.15
2022-09-13T04:19:51.030Z,95.54
2022-09-13T04:22:20.271Z,95.68
2022-09-13T04:24:49.551Z,95.21
2022-09-13T04:27:18.820Z,94.62
2022-09-13T04:29:48.189Z,94.35
2022-09-13T04:32:17.427Z,94.67
2022-09-13T04:34:47.821Z,94.20
2022-09-13T04:37:17.067Z,93.91
2022-09-13T04:39:47.100Z,94.08
2022-09-13T04:42:16.416Z,94.03
2022-09-13T04:44:46.212Z,94.10
2022-09-13T04:47:15.457Z,93.94
2022-09-13T04:49:44.903Z,94.11
2022-09-13T04:52:14.135Z,93.93
2022-09-13T04:54:43.740Z,94.31
2022-09-13T04:57:12.970Z,94.59
2022-09-13T04:59:42.326Z,95.01
2022-09-13T05:02:11.646Z,96.11
2022-09-13T05:04:41.007Z,96.46
2022-09-13T05:07:10.358Z,96.99
2022-09-13T05:09:39.669Z,96.97
2022-09-13T05:12:09.041Z,97.58
2022-09-13T05:14:38.441Z,100.00
2022-09-13T05:17:07.651Z,99.67
2022-09-13T05:19:37.059Z,99.37
2022-09-13T05:22:06.253Z,99.06
2022-09-13T05:24:35.567Z,99.92
2022-09-13T05:27:04.914Z,100.00
2022-09-13T05:29:34.151Z,99.75
2022-09-13T05:32:04.437Z,98.99
2022-09-13T05:34:33.694Z,99.02
2022-09-13T05:37:03.310Z,98.75
2022-09-13T05:39:43.973Z,99.16
2022-09-13T05:42:03.632Z,99.13
2022-09-13T05:44:32.912Z,99.79
2022-09-13T05:47:02.179Z,99.98
2022-09-13T05:49:31.562Z,100.00
2022-09-13T05:52:00.779Z,100.00
2022-09-13T05:54:30.224Z,100.00
2022-09-13T05:56:59.457Z,100.00
2022-09-13T05:59:28.837Z,100.00
2022-09-13T06:01:58.499Z,99.96
2022-09-13T06:04:27.815Z,99.93
2022-09-13T06:06:57.417Z,100.00
2022-09-13T06:09:26.793Z,100.00
2022-09-13T06:11:56.352Z,100.00
2022-09-13T06:14:25.654Z,100.00
2022-09-13T06:16:54.899Z,100.00
2022-09-13T06:19:24.193Z,100.00
2022-09-13T06:21:53.427Z,99.74
2022-09-13T06:24:22.627Z,99.52
2022-09-13T06:26:52.221Z,99.84
2022-09-13T06:29:21.601Z,99.67
2022-09-13T06:31:50.998Z,99.58
2022-09-13T06:34:20.250Z,100.00
2022-09-13T06:36:49.478Z,100.00
2022-09-13T06:39:18.846Z,100.00
2022-09-13T06:41:48.314Z,100.00
2022-09-13T06:44:18.063Z,99.48
2022-09-13T06:46:47.477Z,97.59
2022-09-13T06:49:16.790Z,95.90
2022-09-13T06:51:46.033Z,94.75
2022-09-13T06:54:15.280Z,94.24
2022-09-13T06:56:44.512Z,93.06
2022-09-13T06:59:13.720Z,92.86
2022-09-13T07:01:44.979Z,92.29
2022-09-13T07:04:16.468Z,92.17
2022-09-13T07:06:48.028Z,92.22
2022-09-13T07:09:22.315Z,91.95
2022-09-13T07:11:53.090Z,92.45
2022-09-13T07:14:24.367Z,93.30
2022-09-13T07:16:54.437Z,93.45
2022-09-13T07:19:27.669Z,94.26
2022-09-13T07:21:57.750Z,94.04
2022-09-13T07:24:27.618Z,93.29
2022-09-13T07:26:57.017Z,93.52
2022-09-13T07:29:26.213Z,92.84
2022-09-13T07:31:56.940Z,92.89
2022-09-13T07:34:27.449Z,92.93
2022-09-13T07:36:56.794Z,91.98
2022-09-13T07:39:26.000Z,92.10
2022-09-13T07:41:55.322Z,91.63
2022-09-13T07:44:24.524Z,91.98
2022-09-13T07:46:53.870Z,92.72
2022-09-13T07:49:23.135Z,92.91
2022-09-13T07:51:53.073Z,92.89
2022-09-13T07:54:22.278Z,92.91
2022-09-13T07:56:52.000Z,92.58
2022-09-13T07:59:21.270Z,91.91
2022-09-13T08:01:52.153Z,91.46
2022-09-13T08:04:23.908Z,90.88
2022-09-13T08:06:53.599Z,91.01
2022-09-13T08:09:22.798Z,90.61
2022-09-13T08:11:53.490Z,88.87
2022-09-13T08:14:24.467Z,87.97
2022-09-13T08:16:58.082Z,88.18
2022-09-13T08:19:27.434Z,88.44
2022-09-13T08:21:56.657Z,89.43
2022-09-13T08:24:26.830Z,89.51
2022-09-13T08:26:56.551Z,90.13
2022-09-13T08:29:26.117Z,89.26
2022-09-13T08:31:55.497Z,89.36
2022-09-13T08:34:24.931Z,89.85
2022-09-13T08:36:54.229Z,87.98
2022-09-13T08:39:23.674Z,86.37
2022-09-13T08:41:56.074Z,87.29
2022-09-13T08:44:31.742Z,88.28
2022-09-13T08:47:29.293Z,88.39
2022-09-13T08:50:01.684Z,87.30
2022-09-13T08:52:48.459Z,84.53
2022-09-13T08:55:26.788Z,84.34
2022-09-13T08:58:08.064Z,84.02
2022-09-13T09:00:43.565Z,84.12
2022-09-13T09:03:24.623Z,82.37
2022-09-13T09:05:54.576Z,82.00
2022-09-13T09:08:33.973Z,80.96
2022-09-13T09:11:06.532Z,77.66
2022-09-13T09:13:44.707Z,75.07
2022-09-13T09:16:32.516Z,74.16
2022-09-13T09:19:07.708Z,74.69
2022-09-13T09:21:38.063Z,66.38
2022-09-13T09:24:07.680Z,66.38
2022-09-13T09:26:36.898Z,62.73
2022-09-13T09:29:26.275Z,61.65
2022-09-13T09:32:18.246Z,61.70
2022-09-13T09:34:53.664Z,61.07
2022-09-13T09:37:27.399Z,56.47
2022-09-13T09:40:06.191Z,54.75
2022-09-13T09:42:47.082Z,58.55
2022-09-13T09:45:25.551Z,58.41
2022-09-13T09:47:55.752Z,56.74
2022-09-13T09:50:28.123Z,57.45
2022-09-13T09:53:06.260Z,56.33
2022-09-13T09:55:53.813Z,58.39
2022-09-13T09:58:42.872Z,61.58
2022-09-13T10:01:30.092Z,64.77
2022-09-13T10:04:16.160Z,67.02
2022-09-13T10:06:46.439Z,70.00
2022-09-13T10:09:18.058Z,73.55
2022-09-13T10:11:49.907Z,73.53
2022-09-13T10:14:38.838Z,73.79
2022-09-13T10:17:17.778Z,74.30
2022-09-13T10:20:01.908Z,75.17
2022-09-13T10:22:32.875Z,73.42
2022-09-13T10:25:25.622Z,70.90
2022-09-13T10:27:57.170Z,68.71
2022-09-13T10:30:48.937Z,64.68
2022-09-13T10:33:35.879Z,62.83
2022-09-13T10:36:07.993Z,62.05
2022-09-13T10:38:37.608Z,58.50
2022-09-13T10:41:12.473Z,57.57
2022-09-13T10:43:41.842Z,56.43
2022-09-13T10:46:13.669Z,56.89
2022-09-13T10:48:50.291Z,57.85
2022-09-13T10:51:21.963Z,58.20
2022-09-13T10:53:51.339Z,60.11
2022-09-13T10:56:28.152Z,62.91
2022-09-13T10:59:18.341Z,66.50
2022-09-13T11:02:11.608Z,68.09
2022-09-13T11:05:01.178Z,66.69
2022-09-13T11:07:50.093Z,68.03
2022-09-13T11:10:28.636Z,67.57
2022-09-13T11:13:17.393Z,65.75
2022-09-13T11:16:24.938Z,65.69
2022-09-13T11:19:18.534Z,68.30
2022-09-13T11:22:03.154Z,66.38
2022-09-13T11:24:35.596Z,64.38
2022-09-13T11:27:10.894Z,60.72
2022-09-13T11:29:58.260Z,59.38
2022-09-13T11:32:36.780Z,55.70
2022-09-13T11:35:23.416Z,52.74
2022-09-13T11:38:18.466Z,53.81
2022-09-13T11:40:53.720Z,55.62
2022-09-13T11:43:42.797Z,55.27
2022-09-13T11:46:15.264Z,55.54
2022-09-13T11:48:53.670Z,53.68
2022-09-13T11:51:37.557Z,53.46
2022-09-13T11:54:15.840Z,48.27
2022-09-13T11:56:47.864Z,49.33
2022-09-13T11:59:37.333Z,47.70
2022-09-13T12:02:21.829Z,48.93
2022-09-13T12:05:21.596Z,50.78
2022-09-13T12:07:53.857Z,52.46
2022-09-13T12:10:31.750Z,51.14
2022-09-13T12:13:03.100Z,50.29
2022-09-13T12:15:41.334Z,52.67
2022-09-13T12:18:19.333Z,55.85
2022-09-13T12:20:51.766Z,59.71
2022-09-13T12:23:25.206Z,58.78
2022-09-13T12:26:03.675Z,55.30
2022-09-13T12:28:38.536Z,54.73
2022-09-13T12:31:28.522Z,50.74
2022-09-13T12:33:58.602Z,49.58
2022-09-13T12:36:42.868Z,49.13
2022-09-13T12:39:36.135Z,51.04
2022-09-13T12:42:29.515Z,49.98
2022-09-13T12:45:19.151Z,52.08
2022-09-13T12:48:17.419Z,53.76
2022-09-13T12:50:52.472Z,59.27
2022-09-13T12:53:44.333Z,62.71
2022-09-13T12:56:41.750Z,65.05
2022-09-13T12:59:34.258Z,63.65
2022-09-13T13:02:04.169Z,63.02
2022-09-13T13:04:37.391Z,59.22
2022-09-13T13:07:10.244Z,57.14
2022-09-13T13:09:48.503Z,59.11
2022-09-13T13:12:30.093Z,55.40
2022-09-13T13:15:01.293Z,57.92
2022-09-13T13:17:52.213Z,60.86
2022-09-13T13:20:50.554Z,61.84
2022-09-13T13:23:40.917Z,63.42
2022-09-13T13:26:28.705Z,64.76
2022-09-13T13:29:13.402Z,65.21
2022-09-13T13:32:01.432Z,65.64
2022-09-13T13:34:39.762Z,66.47
2022-09-13T13:37:20.643Z,67.60
2022-09-13T13:39:52.698Z,67.12
2022-09-13T13:42:36.385Z,65.08
2022-09-13T13:45:18.498Z,63.81
2022-09-13T13:47:59.599Z,64.12
2022-09-13T13:50:28.827Z,66.52
2022-09-13T13:53:01.663Z,67.61
2022-09-13T13:55:34.336Z,68.61
2022-09-13T13:58:25.993Z,69.58
2022-09-13T14:00:56.400Z,69.58
2022-09-13T14:03:52.911Z,70.67
2022-09-13T14:06:33.792Z,69.87
2022-09-13T14:09:33.105Z,70.93
2022-09-13T14:12:24.247Z,69.88
2022-09-13T14:15:19.774Z,71.78
2022-09-13T14:21:26.886Z,70.34
2022-09-13T14:27:33.552Z,70.83
2022-09-13T14:30:06.308Z,71.59
2022-09-13T14:32:43.997Z,72.33
2022-09-13T14:35:35.895Z,71.94
2022-09-13T14:38:14.427Z,72.64
2022-09-13T14:40:47.044Z,73.46
2022-09-13T14:43:19.867Z,72.15
2022-09-13T14:45:51.411Z,69.57
2022-09-13T14:48:26.322Z,71.18
2022-09-13T14:51:15.339Z,71.65
2022-09-13T14:53:44.860Z,72.14
2022-09-13T14:56:26.233Z,73.21
2022-09-13T14:58:57.553Z,72.75
2022-09-13T15:01:32.496Z,72.19
2022-09-13T15:04:03.621Z,71.72
2022-09-13T15:06:38.099Z,72.15
2022-09-13T15:09:16.311Z,73.01
2022-09-13T15:11:57.902Z,72.91
2022-09-13T15:14:32.007Z,72.95
2022-09-13T15:17:12.469Z,69.24
2022-09-13T15:19:52.619Z,69.87
2022-09-13T15:22:27.903Z,71.21
2022-09-13T15:24:58.972Z,71.45
2022-09-13T15:27:44.884Z,71.94
2022-09-13T15:30:26.210Z,73.24
2022-09-13T15:33:13.708Z,72.75
2022-09-13T15:35:45.032Z,73.15
2022-09-13T15:38:32.348Z,73.36
2022-09-13T15:41:15.471Z,72.50
2022-09-13T15:43:44.714Z,72.47
2022-09-13T15:46:16.233Z,71.68
2022-09-13T15:48:54.497Z,71.58
2022-09-13T15:51:24.157Z,71.99
2022-09-13T15:53:53.747Z,72.08
2022-09-13T15:56:33.472Z,71.50
2022-09-13T15:59:02.753Z,71.24
2022-09-13T16:01:32.423Z,70.49
2022-09-13T16:04:03.432Z,69.54
2022-09-13T16:06:32.691Z,70.49
2022-09-13T16:09:02.140Z,71.40
2022-09-13T16:11:31.505Z,71.33
2022-09-13T16:14:00.763Z,71.55
2022-09-13T16:16:30.336Z,70.58
2022-09-13T16:19:01.351Z,70.19
2022-09-13T16:21:30.852Z,70.99
2022-09-13T16:24:00.109Z,70.88
2022-09-13T16:26:30.230Z,71.36
2022-09-13T16:28:59.447Z,71.87
2022-09-13T16:31:28.957Z,72.16
2022-09-13T16:33:58.333Z,71.44
2022-09-13T16:36:29.409Z,71.72
2022-09-13T16:38:59.039Z,72.59
2022-09-13T16:41:28.532Z,72.20
2022-09-13T16:43:58.269Z,72.74
2022-09-13T16:46:28.529Z,73.16
2022-09-13T16:48:58.243Z,73.66
2022-09-13T16:51:27.672Z,73.74
2022-09-13T16:53:57.314Z,72.89
2022-09-13T16:56:27.370Z,73.92
2022-09-13T16:58:56.872Z,73.30
2022-09-13T17:01:28.342Z,73.81
2022-09-13T17:03:58.201Z,74.40
2022-09-13T17:06:28.113Z,74.86
2022-09-13T17:09:02.033Z,75.61
2022-09-13T17:11:33.953Z,75.90
2022-09-13T17:14:05.189Z,75.86
2022-09-13T17:16:39.745Z,75.77
2022-09-13T17:19:12.648Z,76.29
2022-09-13T17:21:42.080Z,76.44
2022-09-13T17:24:13.693Z,77.26
2022-09-13T17:26:43.608Z,78.24
2022-09-13T17:29:14.011Z,78.32
2022-09-13T17:31:43.818Z,78.50
2022-09-13T17:34:13.998Z,79.17
2022-09-13T17:36:43.556Z,79.52
2022-09-13T17:39:12.973Z,79.93
2022-09-13T17:41:42.302Z,81.03
2022-09-13T17:44:12.474Z,80.92
2022-09-13T17:46:41.793Z,81.17
2022-09-13T17:49:11.036Z,81.62
2022-09-13T17:51:40.394Z,81.40
2022-09-13T17:54:11.889Z,81.45
2022-09-13T17:56:43.429Z,81.71
2022-09-13T17:59:14.755Z,80.92
2022-09-13T18:01:46.171Z,81.92
2022-09-13T18:04:17.726Z,81.37
2022-09-13T18:06:47.018Z,82.46
2022-09-13T18:09:16.789Z,84.49
2022-09-13T18:11:46.007Z,84.18
2022-09-13T18:14:17.458Z,85.95
2022-09-13T18:16:47.248Z,85.60
2022-09-13T18:19:16.708Z,86.28
2022-09-13T18:21:45.939Z,87.23
2022-09-13T18:24:15.569Z,87.10
2022-09-13T18:26:44.860Z,88.79
2022-09-13T18:29:15.274Z,88.52
2022-09-13T18:31:44.646Z,88.63
2022-09-13T18:34:15.343Z,90.06
2022-09-13T18:36:44.908Z,90.70
2022-09-13T18:39:19.387Z,91.44
2022-09-13T18:41:49.066Z,92.26
2022-09-13T18:44:19.253Z,94.60
2022-09-13T18:46:50.957Z,95.07
2022-09-13T18:49:20.599Z,96.15
2022-09-13T18:51:50.510Z,97.46
2022-09-13T18:54:20.946Z,98.60
2022-09-13T18:56:51.257Z,99.49
2022-09-13T18:59:21.430Z,100.00
2022-09-13T19:01:52.138Z,100.00
2022-09-13T19:04:23.025Z,100.00
2022-09-13T19:06:56.336Z,100.00
2022-09-13T19:09:27.805Z,100.00
2022-09-13T19:11:58.470Z,100.00
2022-09-13T19:14:29.498Z,100.00
2022-09-13T19:17:04.904Z,100.00
2022-09-13T19:19:35.753Z,100.00
2022-09-13T19:22:06.161Z,100.00
2022-09-13T19:24:37.501Z,100.00
2022-09-13T19:27:07.648Z,100.00
2022-09-13T19:29:37.305Z,100.00
2022-09-13T19:32:06.992Z,100.00
2022-09-13T19:34:37.552Z,100.00
2022-09-13T19:37:06.978Z,100.00
2022-09-13T19:39:36.769Z,100.00
2022-09-13T19:42:06.126Z,100.00
2022-09-13T19:44:35.763Z,100.00
2022-09-13T19:47:53.147Z,100.00
2022-09-13T19:49:37.890Z,100.00
2022-09-13T19:52:07.302Z,100.00
2022-09-13T19:54:36.648Z,100.00
2022-09-13T19:57:07.695Z,100.00
2022-09-13T19:59:37.059Z,100.00
2022-09-13T20:02:06.986Z,100.00
2022-09-13T20:04:36.675Z,100.00
2022-09-13T20:07:06.101Z,100.00
2022-09-13T20:09:35.388Z,100.00
2022-09-13T20:12:06.590Z,100.00
2022-09-13T20:14:37.623Z,100.00
2022-09-13T20:17:07.380Z,100.00
2022-09-13T20:19:42.862Z,100.00
2022-09-13T20:22:09.562Z,100.00
2022-09-13T20:24:38.893Z,100.00
2022-09-13T20:27:08.407Z,100.00
2022-09-13T20:29:37.880Z,100.00
2022-09-13T20:32:07.248Z,100.00
2022-09-13T20:34:37.760Z,100.00
2022-09-13T20:37:07.195Z,100.00
2022-09-13T20:39:36.512Z,100.00
2022-09-13T20:42:06.170Z,100.00
2022-09-13T20:44:35.394Z,100.00
2022-09-13T20:47:05.469Z,100.00
2022-09-13T20:49:34.673Z,100.00
2022-09-13T20:52:04.191Z,100.00
2022-09-13T20:54:33.471Z,100.00
2022-09-13T20:57:02.900Z,100.00
2022-09-13T20:59:32.280Z,100.00
2022-09-13T21:02:01.717Z,100.00
2022-09-13T21:04:32.292Z,100.00
2022-09-13T21:07:19.201Z,100.00
2022-09-13T21:09:48.553Z,100.00
2022-09-13T21:12:17.873Z,100.00
2022-09-13T21:14:47.353Z,100.00
2022-09-13T21:17:16.619Z,100.00
2022-09-13T21:19:46.008Z,100.00
2022-09-13T21:22:15.450Z,100.00
2022-09-13T21:24:44.785Z,100.00
2022-09-13T21:27:15.483Z,100.00
2022-09-13T21:29:44.837Z,100.00
2022-09-13T21:32:14.234Z,100.00
2022-09-13T21:34:43.845Z,100.00
2022-09-13T21:37:13.418Z,100.00
2022-09-13T21:39:42.794Z,100.00
2022-09-13T21:42:12.266Z,100.00
2022-09-13T21:44:43.610Z,100.00
2022-09-13T21:47:12.925Z,100.00
2022-09-13T21:49:43.842Z,100.00
2022-09-13T21:52:13.255Z,100.00
2022-09-13T21:54:42.523Z,100.00
2022-09-13T21:57:11.768Z,100.00
2022-09-13T21:59:40.997Z,100.00
2022-09-13T22:02:10.545Z,100.00
2022-09-13T22:04:39.835Z,100.00
2022-09-13T22:07:09.290Z,100.00
2022-09-13T22:09:38.505Z,100.00
2022-09-13T22:12:08.138Z,100.00
2022-09-13T22:14:37.342Z,100.00
2022-09-13T22:17:06.751Z,100.00
2022-09-13T22:19:36.322Z,100.00
2022-09-13T22:22:06.616Z,100.00
2022-09-13T22:24:36.557Z,100.00
2022-09-13T22:27:07.414Z,100.00
2022-09-13T22:29:37.038Z,100.00
2022-09-13T22:32:06.412Z,100.00
2022-09-13T22:34:35.892Z,100.00
2022-09-13T22:37:05.113Z,100.00
2022-09-13T22:39:34.534Z,100.00
2022-09-13T22:42:03.776Z,100.00
2022-09-13T22:44:33.953Z,100.00
2022-09-13T22:47:03.180Z,100.00
2022-09-13T22:49:32.645Z,100.00
2022-09-13T22:52:02.030Z,100.00
2022-09-13T22:54:31.291Z,100.00
2022-09-13T22:57:00.901Z,100.00
2022-09-13T22:59:30.679Z,100.00
2022-09-13T23:01:59.909Z,100.00
2022-09-13T23:04:29.379Z,100.00
2022-09-13T23:06:58.921Z,100.00
2022-09-13T23:09:28.524Z,100.00
2022-09-13T23:11:57.759Z,100.00
2022-09-13T23:14:27.086Z,100.00
2022-09-13T23:16:56.472Z,100.00
2022-09-13T23:19:27.608Z,100.00
2022-09-13T23:21:56.868Z,100.00
2022-09-13T23:24:26.203Z,100.00
2022-09-13T23:26:57.021Z,100.00
2022-09-13T23:29:26.281Z,100.00
2022-09-13T23:31:55.628Z,100.00
2022-09-13T23:34:25.286Z,100.00
2022-09-13T23:36:55.314Z,100.00
2022-09-13T23:39:24.577Z,100.00
2022-09-13T23:41:53.969Z,100.00
2022-09-13T23:44:23.648Z,100.00
2022-09-13T23:46:52.842Z,100.00
2022-09-13T23:49:22.695Z,100.00
2022-09-13T23:51:51.932Z,100.00
2022-09-13T23:54:21.819Z,100.00
2022-09-13T23:56:51.051Z,100.00
2022-09-13T23:59:20.616Z,100.00
